sensor_id;sensor_type;location;lat;lon;timestamp;noise_LAeq;noise_LA_min;noise_LA_max;noise_LA01;noise_LA95
77729;Laerm;68312;53.502;10.030;2023-04-01T00:01:02;48.58;44.41;53.43;;
77729;Laerm;68312;53.502;10.030;2023-04-01T00:03:29;49.99;45.33;60.76;;
77729;Laerm;68312;53.502;10.030;2023-04-01T00:05:58;50.25;45.21;54.19;;
77729;Laerm;68312;53.502;10.030;2023-04-01T00:08:25;49.19;45.52;54.73;;
77729;Laerm;68312;53.502;10.030;2023-04-01T00:10:53;49.11;44.10;56.10;;
77729;Laerm;68312;53.502;10.030;2023-04-01T00:13:20;47.19;42.92;53.03;;
77729;Laerm;68312;53.502;10.030;2023-04-01T00:15:46;49.11;45.31;56.46;;
77729;Laerm;68312;53.502;10.030;2023-04-01T00:18:12;49.38;45.32;56.49;;
77729;Laerm;68312;53.502;10.030;2023-04-01T00:20:39;49.61;46.43;55.16;;
77729;Laerm;68312;53.502;10.030;2023-04-01T00:23:07;49.95;46.29;55.95;;
77729;Laerm;68312;53.502;10.030;2023-04-01T00:25:33;48.89;46.13;53.12;;
77729;Laerm;68312;53.502;10.030;2023-04-01T00:27:58;48.57;43.78;57.11;;
77729;Laerm;68312;53.502;10.030;2023-04-01T00:30:24;47.94;44.92;53.32;;
77729;Laerm;68312;53.502;10.030;2023-04-01T00:32:53;49.07;43.99;53.29;;
77729;Laerm;68312;53.502;10.030;2023-04-01T00:35:19;48.55;44.54;56.57;;
77729;Laerm;68312;53.502;10.030;2023-04-01T00:37:45;48.69;43.18;58.93;;
77729;Laerm;68312;53.502;10.030;2023-04-01T00:40:28;47.65;42.35;55.12;;
77729;Laerm;68312;53.502;10.030;2023-04-01T00:42:55;52.09;48.48;58.81;;
77729;Laerm;68312;53.502;10.030;2023-04-01T00:45:34;49.56;44.84;58.76;;
77729;Laerm;68312;53.502;10.030;2023-04-01T00:48:15;48.57;44.22;53.99;;
77729;Laerm;68312;53.502;10.030;2023-04-01T00:50:49;48.69;44.27;53.85;;
77729;Laerm;68312;53.502;10.030;2023-04-01T00:53:19;48.26;44.08;54.67;;
77729;Laerm;68312;53.502;10.030;2023-04-01T00:56:07;48.15;44.11;53.34;;
77729;Laerm;68312;53.502;10.030;2023-04-01T00:58:50;47.49;42.88;60.69;;
77729;Laerm;68312;53.502;10.030;2023-04-01T01:01:17;48.68;44.62;54.51;;
77729;Laerm;68312;53.502;10.030;2023-04-01T01:03:43;48.99;42.14;61.19;;
77729;Laerm;68312;53.502;10.030;2023-04-01T01:10:15;46.99;43.35;53.27;;
77729;Laerm;68312;53.502;10.030;2023-04-01T01:16:06;47.82;43.24;52.97;;
77729;Laerm;68312;53.502;10.030;2023-04-01T01:18:53;47.82;42.81;53.33;;
77729;Laerm;68312;53.502;10.030;2023-04-01T01:21:50;49.75;45.55;59.53;;
77729;Laerm;68312;53.502;10.030;2023-04-01T01:31:36;47.79;43.48;52.49;;
77729;Laerm;68312;53.502;10.030;2023-04-01T01:37:43;46.59;42.41;53.65;;
77729;Laerm;68312;53.502;10.030;2023-04-01T01:40:13;47.50;42.77;53.89;;
77729;Laerm;68312;53.502;10.030;2023-04-01T01:42:48;47.84;43.64;55.45;;
77729;Laerm;68312;53.502;10.030;2023-04-01T01:45:21;48.03;43.63;54.58;;
77729;Laerm;68312;53.502;10.030;2023-04-01T01:47:50;47.79;43.40;55.39;;
77729;Laerm;68312;53.502;10.030;2023-04-01T01:50:18;47.88;43.39;56.52;;
77729;Laerm;68312;53.502;10.030;2023-04-01T01:52:45;47.99;43.35;55.25;;
77729;Laerm;68312;53.502;10.030;2023-04-01T01:55:33;49.11;44.99;56.19;;
77729;Laerm;68312;53.502;10.030;2023-04-01T01:58:11;46.36;40.47;53.10;;
77729;Laerm;68312;53.502;10.030;2023-04-01T02:00:48;47.53;41.32;52.41;;
77729;Laerm;68312;53.502;10.030;2023-04-01T02:03:17;48.81;43.12;65.34;;
77729;Laerm;68312;53.502;10.030;2023-04-01T02:05:44;47.04;40.74;59.75;;
77729;Laerm;68312;53.502;10.030;2023-04-01T02:08:21;47.17;40.68;54.38;;
77729;Laerm;68312;53.502;10.030;2023-04-01T02:11:02;46.60;42.94;54.76;;
77729;Laerm;68312;53.502;10.030;2023-04-01T02:13:35;45.59;40.89;51.37;;
77729;Laerm;68312;53.502;10.030;2023-04-01T02:16:19;45.86;40.91;52.17;;
77729;Laerm;68312;53.502;10.030;2023-04-01T02:18:51;45.91;41.61;53.03;;
77729;Laerm;68312;53.502;10.030;2023-04-01T02:21:23;47.77;44.00;53.94;;
77729;Laerm;68312;53.502;10.030;2023-04-01T02:23:54;47.67;43.51;53.51;;
77729;Laerm;68312;53.502;10.030;2023-04-01T02:26:25;46.77;42.90;55.36;;
77729;Laerm;68312;53.502;10.030;2023-04-01T02:28:54;47.10;42.66;53.26;;
77729;Laerm;68312;53.502;10.030;2023-04-01T02:31:23;47.66;42.40;54.12;;
77729;Laerm;68312;53.502;10.030;2023-04-01T02:33:49;46.71;42.36;52.13;;
77729;Laerm;68312;53.502;10.030;2023-04-01T02:36:16;45.30;41.72;54.03;;
77729;Laerm;68312;53.502;10.030;2023-04-01T02:38:46;45.91;41.61;55.33;;
77729;Laerm;68312;53.502;10.030;2023-04-01T02:41:14;48.41;44.59;54.20;;
77729;Laerm;68312;53.502;10.030;2023-04-01T02:43:39;46.45;42.20;51.75;;
77729;Laerm;68312;53.502;10.030;2023-04-01T02:46:05;46.68;41.79;54.45;;
77729;Laerm;68312;53.502;10.030;2023-04-01T02:48:30;51.01;44.05;65.58;;
77729;Laerm;68312;53.502;10.030;2023-04-01T02:50:56;48.69;44.03;54.10;;
77729;Laerm;68312;53.502;10.030;2023-04-01T02:53:22;47.41;43.66;52.96;;
77729;Laerm;68312;53.502;10.030;2023-04-01T02:55:48;46.52;42.26;55.61;;
77729;Laerm;68312;53.502;10.030;2023-04-01T02:58:16;47.24;41.56;52.60;;
77729;Laerm;68312;53.502;10.030;2023-04-01T03:00:42;47.45;42.49;53.01;;
77729;Laerm;68312;53.502;10.030;2023-04-01T03:03:09;46.64;43.19;52.41;;
77729;Laerm;68312;53.502;10.030;2023-04-01T03:05:34;48.33;44.08;60.24;;
77729;Laerm;68312;53.502;10.030;2023-04-01T03:08:01;48.54;44.02;55.54;;
77729;Laerm;68312;53.502;10.030;2023-04-01T03:10:26;47.55;43.95;52.76;;
77729;Laerm;68312;53.502;10.030;2023-04-01T03:12:52;46.77;41.80;52.60;;
77729;Laerm;68312;53.502;10.030;2023-04-01T03:15:17;46.37;41.82;51.49;;
77729;Laerm;68312;53.502;10.030;2023-04-01T03:17:43;48.83;42.74;61.59;;
77729;Laerm;68312;53.502;10.030;2023-04-01T03:20:10;47.10;42.88;54.85;;
77729;Laerm;68312;53.502;10.030;2023-04-01T03:22:37;48.50;43.65;54.03;;
77729;Laerm;68312;53.502;10.030;2023-04-01T03:25:05;48.27;43.11;53.97;;
77729;Laerm;68312;53.502;10.030;2023-04-01T03:27:33;47.38;43.30;59.09;;
77729;Laerm;68312;53.502;10.030;2023-04-01T03:29:59;48.55;43.02;63.54;;
77729;Laerm;68312;53.502;10.030;2023-04-01T03:32:25;49.05;45.33;55.61;;
77729;Laerm;68312;53.502;10.030;2023-04-01T03:34:52;47.54;44.22;55.12;;
77729;Laerm;68312;53.502;10.030;2023-04-01T03:37:18;47.51;43.56;54.21;;
77729;Laerm;68312;53.502;10.030;2023-04-01T03:39:43;47.85;42.94;52.82;;
77729;Laerm;68312;53.502;10.030;2023-04-01T03:42:09;47.49;43.29;55.17;;
77729;Laerm;68312;53.502;10.030;2023-04-01T03:44:34;48.17;44.27;54.69;;
77729;Laerm;68312;53.502;10.030;2023-04-01T03:47:00;49.41;45.10;59.94;;
77729;Laerm;68312;53.502;10.030;2023-04-01T03:49:27;49.16;44.78;55.46;;
77729;Laerm;68312;53.502;10.030;2023-04-01T03:51:52;48.15;44.48;53.99;;
77729;Laerm;68312;53.502;10.030;2023-04-01T03:54:18;48.02;44.24;55.07;;
77729;Laerm;68312;53.502;10.030;2023-04-01T03:56:45;48.00;44.28;52.33;;
77729;Laerm;68312;53.502;10.030;2023-04-01T03:59:11;49.08;45.83;57.18;;
77729;Laerm;68312;53.502;10.030;2023-04-01T04:01:37;48.87;42.63;59.69;;
77729;Laerm;68312;53.502;10.030;2023-04-01T04:04:03;49.07;45.13;58.13;;
77729;Laerm;68312;53.502;10.030;2023-04-01T04:06:29;48.33;43.34;67.30;;
77729;Laerm;68312;53.502;10.030;2023-04-01T04:08:55;47.36;43.23;52.10;;
77729;Laerm;68312;53.502;10.030;2023-04-01T04:11:22;49.31;45.30;55.89;;
77729;Laerm;68312;53.502;10.030;2023-04-01T04:13:48;49.98;45.18;56.48;;
77729;Laerm;68312;53.502;10.030;2023-04-01T04:16:16;49.95;45.16;62.73;;
77729;Laerm;68312;53.502;10.030;2023-04-01T04:18:42;50.03;46.10;56.67;;
77729;Laerm;68312;53.502;10.030;2023-04-01T04:21:13;49.94;45.90;62.79;;
77729;Laerm;68312;53.502;10.030;2023-04-01T04:23:39;50.96;43.83;61.93;;
77729;Laerm;68312;53.502;10.030;2023-04-01T04:26:12;51.59;44.61;63.14;;
77729;Laerm;68312;53.502;10.030;2023-04-01T04:28:38;51.76;45.61;67.71;;
77729;Laerm;68312;53.502;10.030;2023-04-01T04:31:05;50.45;45.51;61.23;;
77729;Laerm;68312;53.502;10.030;2023-04-01T04:33:32;49.90;44.79;61.10;;
77729;Laerm;68312;53.502;10.030;2023-04-01T04:35:59;48.45;44.60;58.87;;
77729;Laerm;68312;53.502;10.030;2023-04-01T04:38:26;50.86;45.73;58.86;;
77729;Laerm;68312;53.502;10.030;2023-04-01T04:40:52;48.95;44.62;55.59;;
77729;Laerm;68312;53.502;10.030;2023-04-01T04:43:18;48.80;45.32;56.95;;
77729;Laerm;68312;53.502;10.030;2023-04-01T04:45:45;52.46;44.38;76.85;;
77729;Laerm;68312;53.502;10.030;2023-04-01T04:48:14;51.20;46.27;72.30;;
77729;Laerm;68312;53.502;10.030;2023-04-01T04:50:46;50.39;45.15;64.82;;
77729;Laerm;68312;53.502;10.030;2023-04-01T04:53:14;55.54;46.59;71.81;;
77729;Laerm;68312;53.502;10.030;2023-04-01T04:55:49;51.90;44.81;70.65;;
77729;Laerm;68312;53.502;10.030;2023-04-01T04:58:16;49.37;44.16;59.28;;
77729;Laerm;68312;53.502;10.030;2023-04-01T05:00:42;49.35;44.58;62.02;;
77729;Laerm;68312;53.502;10.030;2023-04-01T05:03:09;48.80;45.03;59.32;;
77729;Laerm;68312;53.502;10.030;2023-04-01T05:05:34;49.65;46.36;55.58;;
77729;Laerm;68312;53.502;10.030;2023-04-01T05:08:00;49.06;44.81;62.31;;
77729;Laerm;68312;53.502;10.030;2023-04-01T05:10:26;49.25;44.69;56.13;;
77729;Laerm;68312;53.502;10.030;2023-04-01T05:12:51;49.44;45.32;60.25;;
77729;Laerm;68312;53.502;10.030;2023-04-01T05:15:17;48.22;45.18;57.31;;
77729;Laerm;68312;53.502;10.030;2023-04-01T05:17:43;48.07;44.62;53.83;;
77729;Laerm;68312;53.502;10.030;2023-04-01T05:20:09;47.70;44.32;54.18;;
77729;Laerm;68312;53.502;10.030;2023-04-01T05:22:35;47.64;43.65;52.63;;
77729;Laerm;68312;53.502;10.030;2023-04-01T05:25:00;48.88;45.09;65.17;;
77729;Laerm;68312;53.502;10.030;2023-04-01T05:27:26;49.61;44.85;57.42;;
77729;Laerm;68312;53.502;10.030;2023-04-01T05:29:51;50.41;45.16;64.72;;
77729;Laerm;68312;53.502;10.030;2023-04-01T05:32:17;50.43;45.45;60.11;;
77729;Laerm;68312;53.502;10.030;2023-04-01T05:34:42;48.80;45.33;54.93;;
77729;Laerm;68312;53.502;10.030;2023-04-01T05:37:08;50.78;46.55;62.16;;
77729;Laerm;68312;53.502;10.030;2023-04-01T05:39:38;48.99;45.41;57.12;;
77729;Laerm;68312;53.502;10.030;2023-04-01T05:42:06;48.91;45.44;54.46;;
77729;Laerm;68312;53.502;10.030;2023-04-01T05:44:33;49.06;46.15;56.33;;
77729;Laerm;68312;53.502;10.030;2023-04-01T05:46:59;48.54;44.96;62.01;;
77729;Laerm;68312;53.502;10.030;2023-04-01T05:49:24;49.42;45.23;55.77;;
77729;Laerm;68312;53.502;10.030;2023-04-01T05:51:50;49.00;45.77;59.09;;
77729;Laerm;68312;53.502;10.030;2023-04-01T05:54:17;50.32;45.85;60.59;;
77729;Laerm;68312;53.502;10.030;2023-04-01T05:56:43;49.38;45.58;55.92;;
77729;Laerm;68312;53.502;10.030;2023-04-01T05:59:10;50.91;46.51;61.28;;
77729;Laerm;68312;53.502;10.030;2023-04-01T06:01:36;50.94;46.14;62.83;;
77729;Laerm;68312;53.502;10.030;2023-04-01T06:04:02;50.56;46.61;60.85;;
77729;Laerm;68312;53.502;10.030;2023-04-01T06:06:30;50.93;48.17;64.03;;
77729;Laerm;68312;53.502;10.030;2023-04-01T06:09:18;51.95;47.69;59.09;;
77729;Laerm;68312;53.502;10.030;2023-04-01T06:12:39;52.60;48.99;60.20;;
77729;Laerm;68312;53.502;10.030;2023-04-01T06:15:20;53.19;49.96;61.73;;
77729;Laerm;68312;53.502;10.030;2023-04-01T06:24:53;53.20;49.50;63.23;;
77729;Laerm;68312;53.502;10.030;2023-04-01T06:27:51;52.35;48.68;61.12;;
77729;Laerm;68312;53.502;10.030;2023-04-01T06:31:03;52.52;49.30;66.08;;
77729;Laerm;68312;53.502;10.030;2023-04-01T06:33:50;52.85;49.56;61.94;;
77729;Laerm;68312;53.502;10.030;2023-04-01T06:37:03;52.81;49.92;59.48;;
77729;Laerm;68312;53.502;10.030;2023-04-01T06:45:43;54.10;50.88;59.63;;
77729;Laerm;68312;53.502;10.030;2023-04-01T06:52:13;53.43;50.39;60.27;;
77729;Laerm;68312;53.502;10.030;2023-04-01T06:54:51;52.99;50.01;56.64;;
77729;Laerm;68312;53.502;10.030;2023-04-01T06:57:31;52.59;49.51;58.97;;
77729;Laerm;68312;53.502;10.030;2023-04-01T07:00:13;52.94;48.86;64.07;;
77729;Laerm;68312;53.502;10.030;2023-04-01T07:02:54;53.17;49.15;71.85;;
77729;Laerm;68312;53.502;10.030;2023-04-01T07:05:27;52.76;49.22;63.48;;
77729;Laerm;68312;53.502;10.030;2023-04-01T07:08:01;52.55;49.17;57.14;;
77729;Laerm;68312;53.502;10.030;2023-04-01T07:16:19;53.34;50.49;60.65;;
77729;Laerm;68312;53.502;10.030;2023-04-01T07:19:06;53.34;49.92;62.24;;
77729;Laerm;68312;53.502;10.030;2023-04-01T07:21:49;53.04;49.09;59.07;;
77729;Laerm;68312;53.502;10.030;2023-04-01T07:24:36;54.14;51.08;60.06;;
77729;Laerm;68312;53.502;10.030;2023-04-01T07:27:10;54.26;50.87;64.58;;
77729;Laerm;68312;53.502;10.030;2023-04-01T07:29:36;53.88;50.84;57.75;;
77729;Laerm;68312;53.502;10.030;2023-04-01T07:32:42;54.57;50.66;68.01;;
77729;Laerm;68312;53.502;10.030;2023-04-01T07:35:30;52.83;50.17;60.17;;
77729;Laerm;68312;53.502;10.030;2023-04-01T07:38:31;53.19;50.75;56.33;;
77729;Laerm;68312;53.502;10.030;2023-04-01T07:41:29;53.62;50.54;56.98;;
77729;Laerm;68312;53.502;10.030;2023-04-01T07:56:48;53.79;50.02;60.90;;
77729;Laerm;68312;53.502;10.030;2023-04-01T08:02:34;54.13;50.78;60.85;;
77729;Laerm;68312;53.502;10.030;2023-04-01T08:05:34;53.93;50.28;61.96;;
77729;Laerm;68312;53.502;10.030;2023-04-01T08:14:23;53.46;50.27;60.88;;
77729;Laerm;68312;53.502;10.030;2023-04-01T08:17:12;52.92;49.09;65.27;;
77729;Laerm;68312;53.502;10.030;2023-04-01T08:23:40;53.58;50.49;66.03;;
77729;Laerm;68312;53.502;10.030;2023-04-01T08:26:39;54.06;50.92;58.62;;
77729;Laerm;68312;53.502;10.030;2023-04-01T08:29:23;55.03;50.96;69.97;;
77729;Laerm;68312;53.502;10.030;2023-04-01T08:32:06;55.21;50.30;71.69;;
77729;Laerm;68312;53.502;10.030;2023-04-01T08:34:40;54.62;51.15;60.65;;
77729;Laerm;68312;53.502;10.030;2023-04-01T08:37:17;54.12;50.70;61.90;;
77729;Laerm;68312;53.502;10.030;2023-04-01T08:39:54;53.84;50.76;60.31;;
77729;Laerm;68312;53.502;10.030;2023-04-01T08:42:52;54.33;50.94;60.80;;
77729;Laerm;68312;53.502;10.030;2023-04-01T08:45:56;53.15;49.89;63.53;;
77729;Laerm;68312;53.502;10.030;2023-04-01T09:06:47;53.26;50.06;62.05;;
77729;Laerm;68312;53.502;10.030;2023-04-01T09:12:26;54.68;51.41;60.61;;
77729;Laerm;68312;53.502;10.030;2023-04-01T09:15:37;54.55;51.32;63.19;;
77729;Laerm;68312;53.502;10.030;2023-04-01T09:22:09;54.97;51.19;63.44;;
77729;Laerm;68312;53.502;10.030;2023-04-01T09:25:24;55.42;51.68;64.19;;
77729;Laerm;68312;53.502;10.030;2023-04-01T09:28:27;53.01;49.55;57.43;;
77729;Laerm;68312;53.502;10.030;2023-04-01T09:31:41;53.80;50.41;65.19;;
77729;Laerm;68312;53.502;10.030;2023-04-01T09:34:53;53.75;50.45;61.54;;
77729;Laerm;68312;53.502;10.030;2023-04-01T09:37:53;53.71;50.91;61.86;;
77729;Laerm;68312;53.502;10.030;2023-04-01T09:43:58;54.54;51.34;64.17;;
77729;Laerm;68312;53.502;10.030;2023-04-01T09:49:59;54.39;51.13;63.13;;
77729;Laerm;68312;53.502;10.030;2023-04-01T10:14:00;53.68;50.67;63.32;;
77729;Laerm;68312;53.502;10.030;2023-04-01T10:20:58;53.83;50.70;65.83;;
77729;Laerm;68312;53.502;10.030;2023-04-01T10:27:32;53.68;50.29;70.84;;
77729;Laerm;68312;53.502;10.030;2023-04-01T10:31:03;52.91;49.74;62.94;;
77729;Laerm;68312;53.502;10.030;2023-04-01T10:36:56;53.32;49.91;62.83;;
77729;Laerm;68312;53.502;10.030;2023-04-01T10:47:19;54.75;50.74;81.86;;
77729;Laerm;68312;53.502;10.030;2023-04-01T10:50:24;53.87;50.19;60.24;;
77729;Laerm;68312;53.502;10.030;2023-04-01T10:56:42;54.58;49.76;64.63;;
77729;Laerm;68312;53.502;10.030;2023-04-01T11:06:31;55.35;51.47;74.58;;
77729;Laerm;68312;53.502;10.030;2023-04-01T11:13:34;53.22;50.07;61.59;;
77729;Laerm;68312;53.502;10.030;2023-04-01T11:25:55;53.92;50.84;59.80;;
77729;Laerm;68312;53.502;10.030;2023-04-01T11:41:32;54.75;51.41;60.86;;
77729;Laerm;68312;53.502;10.030;2023-04-01T11:44:29;53.73;50.15;65.83;;
77729;Laerm;68312;53.502;10.030;2023-04-01T11:47:45;52.69;49.64;58.61;;
77729;Laerm;68312;53.502;10.030;2023-04-01T12:08:04;55.10;50.40;73.99;;
77729;Laerm;68312;53.502;10.030;2023-04-01T12:13:45;52.50;49.28;59.17;;
77729;Laerm;68312;53.502;10.030;2023-04-01T12:16:49;52.79;49.57;59.63;;
77729;Laerm;68312;53.502;10.030;2023-04-01T12:19:42;52.78;49.05;59.14;;
77729;Laerm;68312;53.502;10.030;2023-04-01T12:22:52;52.97;49.79;59.66;;
77729;Laerm;68312;53.502;10.030;2023-04-01T12:29:03;54.25;50.24;64.91;;
77729;Laerm;68312;53.502;10.030;2023-04-01T12:35:17;54.78;51.30;61.36;;
77729;Laerm;68312;53.502;10.030;2023-04-01T12:38:30;54.40;50.23;63.04;;
77729;Laerm;68312;53.502;10.030;2023-04-01T12:41:55;53.35;49.73;62.07;;
77729;Laerm;68312;53.502;10.030;2023-04-01T12:44:51;62.91;49.86;91.15;;
77729;Laerm;68312;53.502;10.030;2023-04-01T12:47:58;53.64;50.31;62.55;;
77729;Laerm;68312;53.502;10.030;2023-04-01T12:51:00;53.51;50.21;66.88;;
77729;Laerm;68312;53.502;10.030;2023-04-01T12:57:36;54.53;49.82;66.86;;
77729;Laerm;68312;53.502;10.030;2023-04-01T13:03:59;53.72;49.75;60.56;;
77729;Laerm;68312;53.502;10.030;2023-04-01T13:07:13;53.62;50.12;63.24;;
77729;Laerm;68312;53.502;10.030;2023-04-01T13:13:10;54.55;50.62;64.35;;
77729;Laerm;68312;53.502;10.030;2023-04-01T13:16:27;55.04;50.86;70.18;;
77729;Laerm;68312;53.502;10.030;2023-04-01T13:19:40;52.74;49.39;58.34;;
77729;Laerm;68312;53.502;10.030;2023-04-01T13:22:48;52.78;49.52;57.08;;
77729;Laerm;68312;53.502;10.030;2023-04-01T13:25:44;52.65;49.53;62.10;;
77729;Laerm;68312;53.502;10.030;2023-04-01T13:28:32;53.81;49.93;64.88;;
77729;Laerm;68312;53.502;10.030;2023-04-01T13:31:42;54.20;50.69;69.56;;
77729;Laerm;68312;53.502;10.030;2023-04-01T13:37:26;54.43;50.37;62.11;;
77729;Laerm;68312;53.502;10.030;2023-04-01T13:40:16;54.39;50.48;61.15;;
77729;Laerm;68312;53.502;10.030;2023-04-01T13:43:02;82.76;50.85;110.66;;
77729;Laerm;68312;53.502;10.030;2023-04-01T13:46:08;53.78;50.29;58.60;;
77729;Laerm;68312;53.502;10.030;2023-04-01T13:52:17;54.18;49.40;65.42;;
77729;Laerm;68312;53.502;10.030;2023-04-01T13:55:51;53.07;49.92;58.68;;
77729;Laerm;68312;53.502;10.030;2023-04-01T13:58:55;53.48;50.52;57.76;;
77729;Laerm;68312;53.502;10.030;2023-04-01T14:01:41;54.50;51.17;60.52;;
77729;Laerm;68312;53.502;10.030;2023-04-01T14:05:00;54.64;50.67;69.30;;
77729;Laerm;68312;53.502;10.030;2023-04-01T14:07:49;54.48;49.52;69.12;;
77729;Laerm;68312;53.502;10.030;2023-04-01T14:16:44;54.36;50.64;62.43;;
77729;Laerm;68312;53.502;10.030;2023-04-01T14:26:13;53.33;49.81;63.08;;
77729;Laerm;68312;53.502;10.030;2023-04-01T14:29:39;53.55;50.09;58.11;;
77729;Laerm;68312;53.502;10.030;2023-04-01T14:32:38;54.58;50.96;61.89;;
77729;Laerm;68312;53.502;10.030;2023-04-01T14:35:38;52.93;49.94;58.27;;
77729;Laerm;68312;53.502;10.030;2023-04-01T14:38:30;52.81;49.02;57.77;;
77729;Laerm;68312;53.502;10.030;2023-04-01T14:41:18;52.50;49.69;58.52;;
77729;Laerm;68312;53.502;10.030;2023-04-01T14:44:24;53.09;49.48;62.39;;
77729;Laerm;68312;53.502;10.030;2023-04-01T14:47:56;55.07;49.58;65.86;;
77729;Laerm;68312;53.502;10.030;2023-04-01T14:50:30;52.96;49.03;58.67;;
77729;Laerm;68312;53.502;10.030;2023-04-01T14:53:29;53.54;49.61;60.67;;
77729;Laerm;68312;53.502;10.030;2023-04-01T14:56:00;52.97;49.41;62.37;;
77729;Laerm;68312;53.502;10.030;2023-04-01T14:58:57;77.50;49.17;106.14;;
77729;Laerm;68312;53.502;10.030;2023-04-01T15:01:51;80.50;49.70;106.13;;
77729;Laerm;68312;53.502;10.030;2023-04-01T15:05:05;54.77;49.36;72.00;;
77729;Laerm;68312;53.502;10.030;2023-04-01T15:08:09;55.15;49.58;70.78;;
77729;Laerm;68312;53.502;10.030;2023-04-01T15:13:58;54.99;50.04;69.60;;
77729;Laerm;68312;53.502;10.030;2023-04-01T15:17:00;54.59;49.13;71.55;;
77729;Laerm;68312;53.502;10.030;2023-04-01T15:23:19;56.32;49.36;80.89;;
77729;Laerm;68312;53.502;10.030;2023-04-01T15:31:39;53.30;49.58;66.63;;
77729;Laerm;68312;53.502;10.030;2023-04-01T15:40:22;52.21;49.87;55.91;;
77729;Laerm;68312;53.502;10.030;2023-04-01T15:46:43;52.37;49.03;68.73;;
77729;Laerm;68312;53.502;10.030;2023-04-01T15:49:37;53.39;49.59;64.93;;
77729;Laerm;68312;53.502;10.030;2023-04-01T15:56:10;54.02;50.08;63.61;;
77729;Laerm;68312;53.502;10.030;2023-04-01T15:59:41;53.20;48.94;63.35;;
77729;Laerm;68312;53.502;10.030;2023-04-01T16:02:40;53.00;49.65;63.68;;
77729;Laerm;68312;53.502;10.030;2023-04-01T16:08:55;53.62;49.70;62.55;;
77729;Laerm;68312;53.502;10.030;2023-04-01T16:15:28;54.24;50.92;62.98;;
77729;Laerm;68312;53.502;10.030;2023-04-01T16:18:49;54.23;50.74;60.96;;
77729;Laerm;68312;53.502;10.030;2023-04-01T16:22:05;53.61;49.85;61.91;;
77729;Laerm;68312;53.502;10.030;2023-04-01T16:24:51;54.02;49.68;61.42;;
77729;Laerm;68312;53.502;10.030;2023-04-01T16:33:54;53.05;49.05;62.13;;
77729;Laerm;68312;53.502;10.030;2023-04-01T16:36:49;52.84;49.48;61.30;;
77729;Laerm;68312;53.502;10.030;2023-04-01T16:43:42;53.59;50.01;62.68;;
77729;Laerm;68312;53.502;10.030;2023-04-01T16:46:26;53.29;48.79;64.04;;
77729;Laerm;68312;53.502;10.030;2023-04-01T16:52:13;53.66;49.47;69.48;;
77729;Laerm;68312;53.502;10.030;2023-04-01T16:54:58;53.21;48.89;65.13;;
77729;Laerm;68312;53.502;10.030;2023-04-01T16:57:45;52.70;49.66;57.29;;
77729;Laerm;68312;53.502;10.030;2023-04-01T17:00:39;52.69;49.90;59.55;;
77729;Laerm;68312;53.502;10.030;2023-04-01T17:03:32;53.79;50.35;61.97;;
77729;Laerm;68312;53.502;10.030;2023-04-01T17:12:19;53.92;49.58;64.19;;
77729;Laerm;68312;53.502;10.030;2023-04-01T17:22:04;53.72;49.58;65.81;;
77729;Laerm;68312;53.502;10.030;2023-04-01T17:27:40;52.93;48.42;61.77;;
77729;Laerm;68312;53.502;10.030;2023-04-01T17:30:31;52.24;49.32;56.58;;
77729;Laerm;68312;53.502;10.030;2023-04-01T17:42:48;52.54;47.92;60.08;;
77729;Laerm;68312;53.502;10.030;2023-04-01T17:45:53;52.57;48.64;63.21;;
77729;Laerm;68312;53.502;10.030;2023-04-01T17:51:37;50.96;47.66;61.00;;
77729;Laerm;68312;53.502;10.030;2023-04-01T17:54:47;52.13;47.64;59.57;;
77729;Laerm;68312;53.502;10.030;2023-04-01T18:00:47;50.86;47.98;55.96;;
77729;Laerm;68312;53.502;10.030;2023-04-01T18:06:53;50.23;46.74;58.09;;
77729;Laerm;68312;53.502;10.030;2023-04-01T18:13:07;50.26;46.36;55.58;;
77729;Laerm;68312;53.502;10.030;2023-04-01T18:25:16;51.81;48.13;58.88;;
77729;Laerm;68312;53.502;10.030;2023-04-01T18:27:53;53.22;49.07;59.27;;
77729;Laerm;68312;53.502;10.030;2023-04-01T18:30:29;51.98;48.00;64.72;;
77729;Laerm;68312;53.502;10.030;2023-04-01T18:33:09;70.36;48.08;100.82;;
77729;Laerm;68312;53.502;10.030;2023-04-01T18:36:18;50.98;47.28;59.07;;
77729;Laerm;68312;53.502;10.030;2023-04-01T18:39:15;52.02;47.67;58.02;;
77729;Laerm;68312;53.502;10.030;2023-04-01T18:42:01;51.10;47.20;59.07;;
77729;Laerm;68312;53.502;10.030;2023-04-01T18:44:50;50.89;47.35;58.45;;
77729;Laerm;68312;53.502;10.030;2023-04-01T18:47:44;51.44;46.97;62.89;;
77729;Laerm;68312;53.502;10.030;2023-04-01T18:51:34;51.93;47.24;60.73;;
77729;Laerm;68312;53.502;10.030;2023-04-01T18:53:39;50.15;46.66;54.34;;
77729;Laerm;68312;53.502;10.030;2023-04-01T18:56:37;49.61;46.22;54.60;;
77729;Laerm;68312;53.502;10.030;2023-04-01T18:59:39;49.79;45.86;58.42;;
77729;Laerm;68312;53.502;10.030;2023-04-01T19:02:41;50.59;47.25;56.93;;
77729;Laerm;68312;53.502;10.030;2023-04-01T19:05:18;50.85;47.70;58.09;;
77729;Laerm;68312;53.502;10.030;2023-04-01T19:07:55;50.32;46.82;57.08;;
77729;Laerm;68312;53.502;10.030;2023-04-01T19:10:48;49.57;46.05;57.48;;
77729;Laerm;68312;53.502;10.030;2023-04-01T19:13:33;49.31;45.81;56.84;;
77729;Laerm;68312;53.502;10.030;2023-04-01T19:20:16;49.73;46.28;56.67;;
77729;Laerm;68312;53.502;10.030;2023-04-01T19:23:07;49.92;45.95;57.91;;
77729;Laerm;68312;53.502;10.030;2023-04-01T19:25:49;49.68;46.43;57.19;;
77729;Laerm;68312;53.502;10.030;2023-04-01T19:28:44;50.36;45.78;59.85;;
77729;Laerm;68312;53.502;10.030;2023-04-01T19:32:05;48.90;45.21;52.72;;
77729;Laerm;68312;53.502;10.030;2023-04-01T19:34:26;51.01;47.30;60.59;;
77729;Laerm;68312;53.502;10.030;2023-04-01T19:37:09;50.92;47.51;56.32;;
77729;Laerm;68312;53.502;10.030;2023-04-01T19:40:17;50.00;46.19;56.70;;
77729;Laerm;68312;53.502;10.030;2023-04-01T19:44:09;51.52;48.27;57.58;;
77729;Laerm;68312;53.502;10.030;2023-04-01T19:46:55;51.31;46.41;62.89;;
77729;Laerm;68312;53.502;10.030;2023-04-01T19:52:33;51.69;47.44;64.14;;
77729;Laerm;68312;53.502;10.030;2023-04-01T19:55:30;49.78;45.41;58.19;;
77729;Laerm;68312;53.502;10.030;2023-04-01T20:00:54;49.53;46.55;55.72;;
77729;Laerm;68312;53.502;10.030;2023-04-01T20:03:41;48.97;45.10;61.69;;
77729;Laerm;68312;53.502;10.030;2023-04-01T20:10:01;48.91;45.15;53.49;;
77729;Laerm;68312;53.502;10.030;2023-04-01T20:13:07;50.73;45.48;58.51;;
77729;Laerm;68312;53.502;10.030;2023-04-01T20:15:57;50.57;46.19;59.40;;
77729;Laerm;68312;53.502;10.030;2023-04-01T20:18:51;50.63;46.38;58.95;;
77729;Laerm;68312;53.502;10.030;2023-04-01T20:21:47;50.96;46.41;58.79;;
77729;Laerm;68312;53.502;10.030;2023-04-01T20:24:46;51.21;46.13;63.85;;
77729;Laerm;68312;53.502;10.030;2023-04-01T20:30:04;50.62;46.22;56.75;;
77729;Laerm;68312;53.502;10.030;2023-04-01T20:36:10;50.18;46.03;56.28;;
77729;Laerm;68312;53.502;10.030;2023-04-01T20:42:54;49.82;45.63;59.01;;
77729;Laerm;68312;53.502;10.030;2023-04-01T20:49:23;49.78;45.89;59.65;;